createdAt,value
2023-05-20T00:02:43.184Z,3.75
2023-05-20T00:05:44.871Z,3.72
2023-05-20T00:08:46.475Z,4.07
2023-05-20T00:11:48.059Z,3.63
2023-05-20T00:14:49.689Z,4.10
2023-05-20T00:17:51.446Z,4.07
2023-05-20T00:20:54.386Z,3.95
2023-05-20T00:23:56.405Z,3.22
2023-05-20T00:26:58.446Z,3.90
2023-05-20T00:30:00.053Z,3.90
2023-05-20T00:33:01.884Z,3.58
2023-05-20T00:36:03.871Z,3.83
2023-05-20T00:39:05.664Z,3.50
2023-05-20T00:42:07.214Z,4.07
2023-05-20T00:45:09.313Z,4.22
2023-05-20T00:48:11.388Z,3.90
2023-05-20T00:51:14.405Z,3.90
2023-05-20T00:54:16.494Z,3.58
2023-05-20T00:57:19.987Z,4.07
2023-05-20T01:00:21.664Z,3.92
2023-05-20T01:03:23.508Z,3.92
2023-05-20T01:06:25.950Z,3.60
2023-05-20T01:09:28.176Z,3.83
2023-05-20T01:12:43.751Z,3.53
2023-05-20T01:15:48.512Z,3.97
2023-05-20T01:18:52.150Z,3.90
2023-05-20T01:21:55.262Z,4.28
2023-05-20T01:24:57.045Z,4.32
2023-05-20T01:27:58.692Z,3.67
2023-05-20T01:31:02.787Z,3.90
2023-05-20T01:34:05.418Z,3.85
2023-05-20T01:37:09.258Z,3.63
2023-05-20T01:40:19.264Z,3.92
2023-05-20T01:43:21.797Z,3.90
2023-05-20T01:46:23.406Z,3.60
2023-05-20T01:49:25.022Z,4.20
2023-05-20T01:52:26.660Z,3.72
2023-05-20T01:55:28.286Z,3.78
2023-05-20T01:58:30.107Z,3.80
2023-05-20T02:01:31.689Z,3.70
2023-05-20T02:04:33.327Z,3.55
2023-05-20T02:07:34.883Z,3.90
2023-05-20T02:10:36.495Z,3.58
2023-05-20T02:13:38.796Z,4.72
2023-05-20T02:16:41.048Z,6.80
2023-05-20T02:19:43.662Z,10.27
2023-05-20T02:22:45.545Z,10.18
2023-05-20T02:25:47.395Z,9.63
2023-05-20T02:28:50.708Z,9.23
2023-05-20T02:31:52.673Z,7.75
2023-05-20T02:34:55.494Z,6.90
2023-05-20T02:37:57.106Z,5.72
2023-05-20T02:40:59.821Z,5.45
2023-05-20T02:44:01.523Z,4.80
2023-05-20T02:47:03.157Z,3.70
2023-05-20T02:50:05.351Z,4.18
2023-05-20T02:53:07.138Z,3.78
2023-05-20T02:56:08.812Z,4.47
2023-05-20T02:59:10.557Z,4.43
2023-05-20T03:02:12.147Z,4.43
2023-05-20T03:05:14.577Z,3.90
2023-05-20T03:08:16.188Z,5.00
2023-05-20T03:11:17.845Z,4.13
2023-05-20T03:14:19.402Z,4.07
2023-05-20T03:17:21.992Z,4.10
2023-05-20T03:20:24.081Z,4.10
2023-05-20T03:23:25.981Z,5.03
2023-05-20T03:26:27.818Z,4.28
2023-05-20T03:29:29.506Z,4.10
2023-05-20T03:32:31.356Z,4.30
2023-05-20T03:35:33.189Z,3.78
2023-05-20T03:38:34.959Z,4.53
2023-05-20T03:41:37.899Z,3.80
2023-05-20T03:44:39.518Z,4.35
2023-05-20T03:47:41.169Z,3.80
2023-05-20T03:50:43.335Z,4.40
2023-05-20T03:53:44.893Z,3.95
2023-05-20T03:56:46.964Z,4.20
2023-05-20T03:59:48.696Z,4.18
2023-05-20T04:02:50.420Z,4.60
2023-05-20T04:05:52.277Z,4.10
2023-05-20T04:08:54.543Z,4.15
2023-05-20T04:11:56.121Z,4.57
2023-05-20T04:15:01.706Z,4.90
2023-05-20T04:18:03.511Z,4.70
2023-05-20T04:21:05.302Z,3.85
2023-05-20T04:24:07.246Z,4.10
2023-05-20T04:27:09.367Z,4.32
2023-05-20T04:30:11.788Z,4.55
2023-05-20T04:33:14.799Z,4.07
2023-05-20T04:36:17.612Z,4.10
2023-05-20T04:39:20.477Z,4.30
2023-05-20T04:42:22.281Z,4.45
2023-05-20T04:45:23.970Z,4.13
2023-05-20T04:48:25.828Z,4.10
2023-05-20T04:51:27.704Z,4.20
2023-05-20T04:54:29.880Z,4.40
2023-05-20T04:57:34.408Z,4.72
2023-05-20T05:00:36.034Z,4.30
2023-05-20T05:03:37.655Z,4.35
2023-05-20T05:06:39.285Z,5.07
2023-05-20T05:09:40.878Z,4.18
2023-05-20T05:12:42.471Z,4.20
2023-05-20T05:15:44.258Z,5.03
2023-05-20T05:18:46.071Z,4.40
2023-05-20T05:21:48.223Z,4.68
2023-05-20T05:24:49.819Z,4.65
2023-05-20T05:27:51.485Z,4.53
2023-05-20T05:30:56.185Z,4.90
2023-05-20T05:33:57.753Z,4.78
2023-05-20T05:36:59.358Z,4.75
2023-05-20T05:40:00.961Z,4.75
2023-05-20T05:43:02.540Z,4.93
2023-05-20T05:46:05.048Z,5.10
2023-05-20T05:49:06.630Z,5.05
2023-05-20T05:52:08.345Z,4.85
2023-05-20T05:55:11.087Z,5.10
2023-05-20T05:58:13.076Z,5.20
2023-05-20T06:01:14.826Z,4.85
2023-05-20T06:04:16.614Z,5.20
2023-05-20T06:07:18.733Z,4.97
2023-05-20T06:10:20.466Z,5.30
2023-05-20T06:13:23.290Z,4.90
2023-05-20T06:16:24.941Z,5.45
2023-05-20T06:19:26.589Z,5.30
2023-05-20T06:22:28.234Z,5.15
2023-05-20T06:25:30.146Z,5.03
2023-05-20T06:28:31.815Z,5.88
2023-05-20T06:31:33.638Z,5.10
2023-05-20T06:34:35.339Z,5.53
2023-05-20T06:37:37.046Z,5.60
2023-05-20T06:40:38.830Z,5.53
2023-05-20T06:43:40.570Z,5.38
2023-05-20T06:46:42.417Z,5.47
2023-05-20T06:49:47.435Z,5.25
2023-05-20T06:52:49.357Z,5.38
2023-05-20T06:55:50.990Z,5.95
2023-05-20T06:58:52.674Z,5.72
2023-05-20T07:01:54.284Z,5.88
2023-05-20T07:04:55.883Z,5.95
2023-05-20T07:07:57.634Z,5.90
2023-05-20T07:10:59.221Z,6.40
2023-05-20T07:14:00.869Z,6.00
2023-05-20T07:17:04.299Z,6.07
2023-05-20T07:20:06.519Z,5.63
2023-05-20T07:23:08.250Z,6.25
2023-05-20T07:26:09.837Z,6.68
2023-05-20T07:29:11.492Z,6.32
2023-05-20T07:32:13.141Z,6.68
2023-05-20T07:35:14.792Z,6.95
2023-05-20T07:38:16.451Z,6.60
2023-05-20T07:41:18.098Z,7.28
2023-05-20T07:44:21.441Z,6.57
2023-05-20T07:47:23.062Z,6.90
2023-05-20T07:50:24.667Z,6.50
2023-05-20T07:53:26.524Z,6.70
2023-05-20T07:56:29.015Z,6.95
2023-05-20T07:59:30.662Z,6.50
2023-05-20T08:02:32.318Z,6.65
2023-05-20T08:05:36.646Z,6.80
2023-05-20T08:08:40.375Z,6.43
2023-05-20T08:11:42.027Z,6.68
2023-05-20T08:14:44.103Z,6.80
2023-05-20T08:17:45.915Z,7.28
2023-05-20T08:20:47.881Z,6.57
2023-05-20T08:23:49.572Z,6.50
2023-05-20T08:26:51.778Z,6.80
2023-05-20T08:29:53.858Z,7.25
2023-05-20T08:32:56.581Z,7.38
2023-05-20T08:35:58.244Z,7.53
2023-05-20T08:39:02.194Z,7.60
2023-05-20T08:42:06.836Z,7.22
2023-05-20T08:45:12.482Z,7.47
2023-05-20T08:48:16.632Z,7.40
2023-05-20T08:51:23.771Z,7.60
2023-05-20T08:54:31.151Z,6.88
2023-05-20T08:57:33.876Z,7.70
2023-05-20T09:00:35.636Z,7.85
2023-05-20T09:03:37.219Z,7.93
2023-05-20T09:06:46.852Z,7.57
2023-05-20T09:09:49.589Z,8.63
2023-05-20T09:12:51.460Z,7.72
2023-05-20T09:15:53.205Z,8.50
2023-05-20T09:18:57.916Z,8.75
2023-05-20T09:22:00.263Z,8.00
2023-05-20T09:25:02.117Z,9.98
2023-05-20T09:28:09.887Z,11.02
2023-05-20T09:31:14.745Z,11.02
2023-05-20T09:34:17.468Z,10.05
2023-05-20T09:37:21.820Z,9.10
2023-05-20T09:40:28.130Z,8.88
2023-05-20T09:43:29.965Z,9.40
2023-05-20T09:46:31.840Z,9.55
2023-05-20T09:49:35.486Z,9.65
2023-05-20T09:52:38.737Z,9.48
2023-05-20T09:55:40.799Z,9.20
2023-05-20T09:58:45.823Z,9.45
2023-05-20T10:01:47.503Z,9.32
2023-05-20T10:04:52.495Z,8.82
2023-05-20T10:08:32.779Z,9.57
2023-05-20T10:12:01.962Z,10.23
2023-05-20T10:15:07.377Z,10.43
2023-05-20T10:18:33.737Z,9.55
2023-05-20T10:21:36.035Z,9.38
2023-05-20T10:24:38.686Z,9.48
2023-05-20T10:27:48.036Z,8.93
2023-05-20T10:30:50.867Z,9.85
2023-05-20T10:33:53.840Z,9.45
2023-05-20T10:36:55.722Z,8.68
2023-05-20T10:40:12.526Z,9.43
2023-05-20T10:43:16.654Z,8.68
2023-05-20T10:46:31.823Z,8.93
2023-05-20T10:49:41.614Z,8.85
2023-05-20T10:52:43.311Z,8.43
2023-05-20T10:55:52.406Z,8.98
2023-05-20T10:58:55.108Z,9.10
2023-05-20T11:01:56.760Z,8.63
2023-05-20T11:04:58.678Z,7.97
2023-05-20T11:08:08.537Z,7.95
2023-05-20T11:11:22.842Z,8.20
2023-05-20T11:14:24.458Z,8.35
2023-05-20T11:17:26.195Z,8.23
2023-05-20T11:20:28.265Z,8.10
2023-05-20T11:23:30.392Z,8.48
2023-05-20T11:26:33.232Z,7.88
2023-05-20T11:29:35.146Z,8.15
2023-05-20T11:32:37.133Z,8.85
2023-05-20T11:35:47.181Z,7.68
2023-05-20T11:38:48.797Z,8.00
2023-05-20T11:41:50.835Z,8.48
2023-05-20T11:44:52.517Z,8.30
2023-05-20T11:48:02.146Z,9.15
2023-05-20T11:51:03.869Z,7.43
2023-05-20T11:54:09.943Z,7.78
2023-05-20T11:57:12.172Z,8.45
2023-05-20T12:00:13.898Z,8.35
2023-05-20T12:03:16.469Z,8.15
2023-05-20T12:06:19.593Z,8.65
2023-05-20T12:09:22.637Z,12.73
2023-05-20T12:12:25.379Z,8.63
2023-05-20T12:15:27.511Z,8.43
2023-05-20T12:18:29.172Z,8.00
2023-05-20T12:21:31.395Z,7.97
2023-05-20T12:24:32.980Z,7.57
2023-05-20T12:27:34.590Z,6.90
2023-05-20T12:30:36.525Z,6.80
2023-05-20T12:33:38.290Z,7.20
2023-05-20T12:36:39.922Z,7.28
2023-05-20T12:39:41.515Z,7.28
2023-05-20T12:42:44.810Z,7.05
2023-05-20T12:45:46.825Z,6.68
2023-05-20T12:48:48.535Z,6.18
2023-05-20T12:51:50.198Z,6.05
2023-05-20T12:54:51.930Z,6.45
2023-05-20T12:57:55.162Z,6.32
2023-05-20T13:00:56.819Z,5.75
2023-05-20T13:03:58.511Z,6.85
2023-05-20T13:07:00.163Z,5.97
2023-05-20T13:10:01.884Z,5.90
2023-05-20T13:13:03.578Z,6.07
2023-05-20T13:16:06.593Z,6.28
2023-05-20T13:19:08.621Z,6.63
2023-05-20T13:22:10.253Z,6.20
2023-05-20T13:25:11.860Z,5.57
2023-05-20T13:28:16.602Z,5.68
2023-05-20T13:31:18.454Z,6.07
2023-05-20T13:34:20.620Z,6.25
2023-05-20T13:37:22.235Z,5.32
2023-05-20T13:40:23.798Z,5.65
2023-05-20T13:43:26.917Z,5.78
2023-05-20T13:46:28.610Z,5.95
2023-05-20T13:49:30.419Z,5.43
2023-05-20T13:52:31.992Z,5.47
2023-05-20T13:55:33.768Z,5.75
2023-05-20T13:58:38.438Z,6.32
2023-05-20T14:01:44.900Z,6.03
2023-05-20T14:04:46.983Z,6.47
2023-05-20T14:07:48.804Z,6.15
2023-05-20T14:10:54.678Z,5.80
2023-05-20T14:13:56.255Z,5.53
2023-05-20T14:16:58.072Z,5.05
2023-05-20T14:20:00.578Z,4.70
2023-05-20T14:23:02.261Z,5.50
2023-05-20T14:26:03.891Z,4.45
2023-05-20T14:29:06.552Z,4.78
2023-05-20T14:32:08.949Z,5.53
2023-05-20T14:35:10.661Z,4.93
2023-05-20T14:38:12.262Z,4.65
2023-05-20T14:41:13.945Z,4.68
2023-05-20T14:44:15.708Z,4.50
2023-05-20T14:47:21.347Z,4.50
2023-05-20T14:50:22.982Z,4.68
2023-05-20T14:53:24.670Z,4.60
2023-05-20T14:56:26.726Z,4.15
2023-05-20T14:59:28.314Z,4.18
2023-05-20T15:02:29.980Z,5.30
2023-05-20T15:05:31.649Z,4.72
2023-05-20T15:08:33.299Z,4.68
2023-05-20T15:11:34.888Z,5.90
2023-05-20T15:14:36.722Z,4.82
2023-05-20T15:17:38.356Z,4.50
2023-05-20T15:20:40.308Z,7.30
2023-05-20T15:23:42.065Z,5.13
2023-05-20T15:26:44.643Z,5.32
2023-05-20T15:29:46.281Z,5.57
2023-05-20T15:32:47.989Z,5.95
2023-05-20T15:35:49.737Z,5.35
2023-05-20T15:38:51.391Z,5.07
2023-05-20T15:41:54.262Z,5.40
2023-05-20T15:44:58.980Z,4.75
2023-05-20T15:48:06.107Z,5.57
2023-05-20T15:51:07.898Z,5.30
2023-05-20T15:54:09.484Z,6.40
2023-05-20T15:57:11.492Z,5.95
2023-05-20T16:00:14.953Z,6.05
2023-05-20T16:03:16.885Z,5.97
2023-05-20T16:06:18.615Z,5.28
2023-05-20T16:09:20.254Z,5.60
2023-05-20T16:12:22.774Z,5.65
2023-05-20T16:15:25.877Z,5.22
2023-05-20T16:18:29.548Z,5.30
2023-05-20T16:21:31.240Z,5.28
2023-05-20T16:24:32.889Z,5.18
2023-05-20T16:27:34.514Z,6.25
2023-05-20T16:30:36.375Z,5.95
2023-05-20T16:33:38.665Z,6.40
2023-05-20T16:36:40.347Z,6.38
2023-05-20T16:39:42.028Z,6.22
2023-05-20T16:42:44.697Z,6.20
2023-05-20T16:45:46.357Z,6.35
2023-05-20T16:48:47.964Z,7.05
2023-05-20T16:51:52.762Z,5.97
2023-05-20T16:54:57.062Z,6.15
2023-05-20T16:57:58.665Z,6.55
2023-05-20T17:01:01.913Z,5.80
2023-05-20T17:04:03.610Z,6.07
2023-05-20T17:07:09.636Z,5.50
2023-05-20T17:10:11.354Z,5.85
2023-05-20T17:13:12.957Z,5.40
2023-05-20T17:16:14.653Z,5.43
2023-05-20T17:19:16.337Z,5.82
2023-05-20T17:22:18.052Z,6.03
2023-05-20T17:25:19.631Z,6.32
2023-05-20T17:28:21.285Z,5.53
2023-05-20T17:31:22.946Z,7.40
2023-05-20T17:34:24.607Z,6.05
2023-05-20T17:37:26.509Z,6.25
2023-05-20T17:40:28.242Z,6.18
2023-05-20T17:43:29.843Z,6.03
2023-05-20T17:46:31.686Z,5.82
2023-05-20T17:49:33.358Z,6.13
2023-05-20T17:52:34.947Z,5.97
2023-05-20T17:55:36.663Z,6.20
2023-05-20T17:58:38.396Z,6.55
2023-05-20T18:01:41.584Z,5.65
2023-05-20T18:04:43.290Z,6.30
2023-05-20T18:07:44.973Z,6.10
2023-05-20T18:10:46.615Z,6.72
2023-05-20T18:13:48.201Z,6.63
2023-05-20T18:16:49.884Z,7.07
2023-05-20T18:19:51.528Z,6.65
2023-05-20T18:22:58.180Z,6.78
2023-05-20T18:25:59.855Z,6.97
2023-05-20T18:29:01.461Z,7.00
2023-05-20T18:32:03.203Z,7.05
2023-05-20T18:35:05.277Z,6.40
2023-05-20T18:38:07.285Z,7.18
2023-05-20T18:41:09.067Z,6.90
2023-05-20T18:44:10.726Z,6.95
2023-05-20T18:47:12.570Z,7.65
2023-05-20T18:50:14.240Z,7.45
2023-05-20T18:53:18.673Z,7.25
2023-05-20T18:56:21.490Z,7.47
2023-05-20T18:59:25.067Z,7.72
2023-05-20T19:02:26.896Z,7.43
2023-05-20T19:05:28.607Z,8.40
2023-05-20T19:08:30.342Z,7.55
2023-05-20T19:11:32.497Z,8.38
2023-05-20T19:14:34.103Z,8.40
2023-05-20T19:17:35.827Z,8.45
2023-05-20T19:20:37.450Z,9.10
2023-05-20T19:23:39.070Z,9.32
2023-05-20T19:26:40.778Z,8.55
2023-05-20T19:29:42.428Z,9.98
2023-05-20T19:32:44.054Z,10.18
2023-05-20T19:35:45.661Z,10.75
2023-05-20T19:38:47.660Z,9.73
2023-05-20T19:41:49.369Z,11.27
2023-05-20T19:44:50.962Z,10.82
2023-05-20T19:47:52.646Z,11.38
2023-05-20T19:50:54.294Z,11.57
2023-05-20T19:53:55.942Z,12.10
2023-05-20T19:56:57.499Z,12.07
2023-05-20T19:59:59.125Z,11.75
2023-05-20T20:03:03.169Z,11.48
2023-05-20T20:06:05.053Z,10.52
2023-05-20T20:09:06.675Z,12.43
2023-05-20T20:12:09.174Z,13.50
2023-05-20T20:15:11.142Z,12.40
2023-05-20T20:18:12.752Z,12.38
2023-05-20T20:21:14.902Z,11.65
2023-05-20T20:24:16.591Z,12.65
2023-05-20T20:27:19.155Z,12.18
2023-05-20T20:30:21.585Z,12.15
2023-05-20T20:33:23.293Z,11.65
2023-05-20T20:36:24.966Z,11.32
2023-05-20T20:39:26.820Z,12.50
2023-05-20T20:42:28.683Z,11.63
2023-05-20T20:45:30.253Z,11.65
2023-05-20T20:48:32.574Z,11.57
2023-05-20T20:51:34.133Z,12.32
2023-05-20T20:54:36.424Z,12.73
2023-05-20T20:57:38.131Z,12.30
2023-05-20T21:00:44.949Z,12.63
2023-05-20T21:03:48.254Z,11.75
2023-05-20T21:06:49.891Z,12.70
2023-05-20T21:09:54.922Z,12.38
2023-05-20T21:12:57.752Z,12.73
2023-05-20T21:15:59.492Z,13.15
2023-05-20T21:19:01.243Z,12.32
2023-05-20T21:22:02.993Z,12.35
2023-05-20T21:25:05.040Z,12.35
2023-05-20T21:28:06.637Z,13.32
2023-05-20T21:31:08.346Z,12.75
2023-05-20T21:34:10.019Z,12.13
2023-05-20T21:37:11.721Z,13.30
2023-05-20T21:40:13.473Z,12.50
2023-05-20T21:43:15.576Z,11.70
2023-05-20T21:46:17.198Z,13.13
2023-05-20T21:49:18.817Z,13.18
2023-05-20T21:52:20.510Z,13.68
2023-05-20T21:55:23.707Z,12.30
2023-05-20T21:58:25.903Z,12.40
2023-05-20T22:01:27.624Z,13.75
2023-05-20T22:04:29.398Z,13.82
2023-05-20T22:07:31.005Z,14.25
2023-05-20T22:10:36.354Z,14.25
2023-05-20T22:13:41.361Z,14.32
2023-05-20T22:16:46.701Z,14.63
2023-05-20T22:19:48.620Z,14.50
2023-05-20T22:22:50.265Z,14.50
2023-05-20T22:25:51.965Z,14.15
2023-05-20T22:28:53.592Z,14.38
2023-05-20T22:31:55.425Z,12.85
2023-05-20T22:34:57.915Z,14.02
2023-05-20T22:38:00.265Z,13.52
2023-05-20T22:41:02.849Z,13.90
2023-05-20T22:44:04.559Z,13.95
2023-05-20T22:47:06.205Z,14.40
2023-05-20T22:50:08.464Z,14.52
2023-05-20T22:53:10.064Z,14.52
2023-05-20T22:56:11.651Z,14.50
2023-05-20T22:59:13.517Z,15.02
2023-05-20T23:02:15.872Z,15.10
2023-05-20T23:05:17.512Z,15.93
2023-05-20T23:08:19.092Z,13.25
2023-05-20T23:11:20.753Z,14.73
2023-05-20T23:14:22.913Z,14.18
2023-05-20T23:17:24.497Z,14.55
2023-05-20T23:20:29.114Z,14.80
2023-05-20T23:23:32.041Z,15.40
2023-05-20T23:26:34.490Z,15.35
2023-05-20T23:29:36.113Z,14.02
2023-05-20T23:32:38.100Z,15.13
2023-05-20T23:35:39.856Z,14.70
2023-05-20T23:38:41.592Z,14.13
2023-05-20T23:41:43.540Z,14.43
2023-05-20T23:44:45.133Z,14.20
2023-05-20T23:47:46.798Z,15.52
2023-05-20T23:50:48.827Z,15.15
2023-05-20T23:53:50.741Z,14.02
2023-05-20T23:56:52.553Z,15.15
2023-05-20T23:59:54.152Z,14.00
